sensor_id;sensor_type;location;lat;lon;timestamp;P1;durP1;ratioP1;P2;durP2;ratioP2
14306;SDS011;7237;49.500;11.400;2022-08-06T00:01:12;6.63;;;2.58;;
14306;SDS011;7237;49.500;11.400;2022-08-06T00:03:39;4.13;;;2.70;;
14306;SDS011;7237;49.500;11.400;2022-08-06T00:06:06;7.47;;;2.20;;
14306;SDS011;7237;49.500;11.400;2022-08-06T00:08:33;5.72;;;2.85;;
14306;SDS011;7237;49.500;11.400;2022-08-06T00:11:00;3.38;;;2.67;;
14306;SDS011;7237;49.500;11.400;2022-08-06T00:13:27;4.73;;;2.87;;
14306;SDS011;7237;49.500;11.400;2022-08-06T00:15:55;2.92;;;2.45;;
14306;SDS011;7237;49.500;11.400;2022-08-06T00:18:22;3.50;;;2.45;;
14306;SDS011;7237;49.500;11.400;2022-08-06T00:20:49;3.75;;;2.38;;
14306;SDS011;7237;49.500;11.400;2022-08-06T00:23:16;5.20;;;2.53;;
14306;SDS011;7237;49.500;11.400;2022-08-06T00:25:44;3.55;;;2.53;;
14306;SDS011;7237;49.500;11.400;2022-08-06T00:28:11;2.83;;;2.50;;
14306;SDS011;7237;49.500;11.400;2022-08-06T00:30:38;3.80;;;2.70;;
14306;SDS011;7237;49.500;11.400;2022-08-06T00:33:06;4.82;;;3.10;;
14306;SDS011;7237;49.500;11.400;2022-08-06T00:35:33;2.83;;;2.60;;
14306;SDS011;7237;49.500;11.400;2022-08-06T00:38:00;3.30;;;2.88;;
14306;SDS011;7237;49.500;11.400;2022-08-06T00:40:28;2.92;;;2.63;;
14306;SDS011;7237;49.500;11.400;2022-08-06T00:42:56;4.00;;;3.13;;
14306;SDS011;7237;49.500;11.400;2022-08-06T00:45:23;5.35;;;3.03;;
14306;SDS011;7237;49.500;11.400;2022-08-06T00:47:50;3.33;;;2.72;;
14306;SDS011;7237;49.500;11.400;2022-08-06T00:50:18;3.88;;;2.63;;
14306;SDS011;7237;49.500;11.400;2022-08-06T00:52:45;6.07;;;2.55;;
14306;SDS011;7237;49.500;11.400;2022-08-06T00:55:13;4.53;;;2.30;;
14306;SDS011;7237;49.500;11.400;2022-08-06T00:57:40;3.85;;;2.72;;
14306;SDS011;7237;49.500;11.400;2022-08-06T01:00:07;3.88;;;2.55;;
14306;SDS011;7237;49.500;11.400;2022-08-06T01:02:34;5.45;;;2.60;;
14306;SDS011;7237;49.500;11.400;2022-08-06T01:05:02;4.57;;;2.90;;
14306;SDS011;7237;49.500;11.400;2022-08-06T01:07:30;4.13;;;2.40;;
14306;SDS011;7237;49.500;11.400;2022-08-06T01:09:58;2.93;;;2.40;;
14306;SDS011;7237;49.500;11.400;2022-08-06T01:12:25;4.97;;;2.20;;
14306;SDS011;7237;49.500;11.400;2022-08-06T01:14:52;2.87;;;2.30;;
14306;SDS011;7237;49.500;11.400;2022-08-06T01:17:21;2.80;;;2.33;;
14306;SDS011;7237;49.500;11.400;2022-08-06T01:19:51;2.40;;;2.20;;
14306;SDS011;7237;49.500;11.400;2022-08-06T01:22:27;5.67;;;2.40;;
14306;SDS011;7237;49.500;11.400;2022-08-06T01:25:03;3.83;;;2.37;;
14306;SDS011;7237;49.500;11.400;2022-08-06T01:27:38;3.73;;;2.37;;
14306;SDS011;7237;49.500;11.400;2022-08-06T01:30:08;2.47;;;2.17;;
14306;SDS011;7237;49.500;11.400;2022-08-06T01:32:36;5.17;;;2.90;;
14306;SDS011;7237;49.500;11.400;2022-08-06T01:35:05;2.63;;;2.00;;
14306;SDS011;7237;49.500;11.400;2022-08-06T01:37:35;4.40;;;2.20;;
14306;SDS011;7237;49.500;11.400;2022-08-06T01:40:06;2.80;;;2.27;;
14306;SDS011;7237;49.500;11.400;2022-08-06T01:42:34;4.80;;;2.40;;
14306;SDS011;7237;49.500;11.400;2022-08-06T01:45:03;4.30;;;2.37;;
14306;SDS011;7237;49.500;11.400;2022-08-06T01:47:31;3.03;;;2.20;;
14306;SDS011;7237;49.500;11.400;2022-08-06T01:49:59;5.17;;;2.30;;
14306;SDS011;7237;49.500;11.400;2022-08-06T01:52:27;4.23;;;2.53;;
14306;SDS011;7237;49.500;11.400;2022-08-06T01:54:55;3.07;;;1.90;;
14306;SDS011;7237;49.500;11.400;2022-08-06T01:57:24;3.17;;;2.07;;
14306;SDS011;7237;49.500;11.400;2022-08-06T01:59:53;2.27;;;2.00;;
14306;SDS011;7237;49.500;11.400;2022-08-06T02:02:22;3.13;;;2.30;;
14306;SDS011;7237;49.500;11.400;2022-08-06T02:04:51;2.10;;;2.00;;
14306;SDS011;7237;49.500;11.400;2022-08-06T02:07:20;2.30;;;2.10;;
14306;SDS011;7237;49.500;11.400;2022-08-06T02:09:49;3.13;;;2.17;;
14306;SDS011;7237;49.500;11.400;2022-08-06T02:12:18;2.90;;;2.50;;
14306;SDS011;7237;49.500;11.400;2022-08-06T02:14:47;2.80;;;2.23;;
14306;SDS011;7237;49.500;11.400;2022-08-06T02:17:17;3.30;;;2.50;;
14306;SDS011;7237;49.500;11.400;2022-08-06T02:19:48;3.00;;;2.53;;
14306;SDS011;7237;49.500;11.400;2022-08-06T02:22:16;3.13;;;2.27;;
14306;SDS011;7237;49.500;11.400;2022-08-06T02:24:43;4.33;;;2.40;;
14306;SDS011;7237;49.500;11.400;2022-08-06T02:27:11;3.13;;;2.70;;
14306;SDS011;7237;49.500;11.400;2022-08-06T02:29:38;2.80;;;2.50;;
14306;SDS011;7237;49.500;11.400;2022-08-06T02:32:07;2.93;;;2.70;;
14306;SDS011;7237;49.500;11.400;2022-08-06T02:34:36;5.07;;;2.67;;
14306;SDS011;7237;49.500;11.400;2022-08-06T02:37:06;4.57;;;2.87;;
14306;SDS011;7237;49.500;11.400;2022-08-06T02:39:35;3.40;;;3.10;;
14306;SDS011;7237;49.500;11.400;2022-08-06T02:42:06;2.90;;;2.60;;
14306;SDS011;7237;49.500;11.400;2022-08-06T02:44:37;3.70;;;2.90;;
14306;SDS011;7237;49.500;11.400;2022-08-06T02:47:06;4.47;;;3.03;;
14306;SDS011;7237;49.500;11.400;2022-08-06T02:49:36;3.13;;;2.83;;
14306;SDS011;7237;49.500;11.400;2022-08-06T02:52:08;3.67;;;2.90;;
14306;SDS011;7237;49.500;11.400;2022-08-06T02:54:38;4.03;;;3.00;;
14306;SDS011;7237;49.500;11.400;2022-08-06T02:57:06;5.03;;;2.90;;
14306;SDS011;7237;49.500;11.400;2022-08-06T02:59:35;7.63;;;3.40;;
14306;SDS011;7237;49.500;11.400;2022-08-06T03:02:03;5.03;;;2.90;;
14306;SDS011;7237;49.500;11.400;2022-08-06T03:04:32;5.90;;;2.90;;
14306;SDS011;7237;49.500;11.400;2022-08-06T03:07:02;7.87;;;3.20;;
14306;SDS011;7237;49.500;11.400;2022-08-06T03:09:31;3.80;;;3.37;;
14306;SDS011;7237;49.500;11.400;2022-08-06T03:11:59;5.67;;;3.30;;
14306;SDS011;7237;49.500;11.400;2022-08-06T03:14:26;6.83;;;3.37;;
14306;SDS011;7237;49.500;11.400;2022-08-06T03:16:54;7.30;;;3.33;;
14306;SDS011;7237;49.500;11.400;2022-08-06T03:19:21;4.17;;;3.70;;
14306;SDS011;7237;49.500;11.400;2022-08-06T03:21:48;5.67;;;3.50;;
14306;SDS011;7237;49.500;11.400;2022-08-06T03:24:16;5.07;;;3.40;;
14306;SDS011;7237;49.500;11.400;2022-08-06T03:26:45;5.07;;;3.57;;
14306;SDS011;7237;49.500;11.400;2022-08-06T03:29:13;5.80;;;3.27;;
14306;SDS011;7237;49.500;11.400;2022-08-06T03:31:40;6.27;;;3.40;;
14306;SDS011;7237;49.500;11.400;2022-08-06T03:34:08;4.93;;;3.63;;
14306;SDS011;7237;49.500;11.400;2022-08-06T03:36:35;4.17;;;3.77;;
14306;SDS011;7237;49.500;11.400;2022-08-06T03:39:04;4.37;;;3.97;;
14306;SDS011;7237;49.500;11.400;2022-08-06T03:41:32;4.20;;;3.80;;
14306;SDS011;7237;49.500;11.400;2022-08-06T03:44:02;5.47;;;4.10;;
14306;SDS011;7237;49.500;11.400;2022-08-06T03:46:30;4.23;;;3.60;;
14306;SDS011;7237;49.500;11.400;2022-08-06T03:48:58;5.10;;;3.87;;
14306;SDS011;7237;49.500;11.400;2022-08-06T03:51:27;7.67;;;3.57;;
14306;SDS011;7237;49.500;11.400;2022-08-06T03:53:54;7.47;;;4.40;;
14306;SDS011;7237;49.500;11.400;2022-08-06T03:56:24;4.60;;;4.20;;
14306;SDS011;7237;49.500;11.400;2022-08-06T03:58:53;6.53;;;4.30;;
14306;SDS011;7237;49.500;11.400;2022-08-06T04:01:23;5.30;;;4.10;;
14306;SDS011;7237;49.500;11.400;2022-08-06T04:03:51;5.27;;;4.43;;
14306;SDS011;7237;49.500;11.400;2022-08-06T04:06:19;5.03;;;4.50;;
14306;SDS011;7237;49.500;11.400;2022-08-06T04:08:47;5.63;;;4.27;;
14306;SDS011;7237;49.500;11.400;2022-08-06T04:11:14;8.27;;;4.53;;
14306;SDS011;7237;49.500;11.400;2022-08-06T04:13:42;5.33;;;4.73;;
14306;SDS011;7237;49.500;11.400;2022-08-06T04:16:10;7.57;;;5.23;;
14306;SDS011;7237;49.500;11.400;2022-08-06T04:18:40;6.53;;;4.37;;
14306;SDS011;7237;49.500;11.400;2022-08-06T04:21:09;12.57;;;4.60;;
14306;SDS011;7237;49.500;11.400;2022-08-06T04:23:37;6.73;;;4.93;;
14306;SDS011;7237;49.500;11.400;2022-08-06T04:26:06;6.50;;;4.30;;
14306;SDS011;7237;49.500;11.400;2022-08-06T04:28:34;6.40;;;4.17;;
14306;SDS011;7237;49.500;11.400;2022-08-06T04:31:02;5.13;;;4.33;;
14306;SDS011;7237;49.500;11.400;2022-08-06T04:33:30;4.70;;;4.30;;
14306;SDS011;7237;49.500;11.400;2022-08-06T04:35:59;5.30;;;3.90;;
14306;SDS011;7237;49.500;11.400;2022-08-06T04:38:30;6.87;;;3.90;;
14306;SDS011;7237;49.500;11.400;2022-08-06T04:40:57;5.93;;;3.90;;
14306;SDS011;7237;49.500;11.400;2022-08-06T04:43:25;9.77;;;3.83;;
14306;SDS011;7237;49.500;11.400;2022-08-06T04:45:52;5.73;;;4.10;;
14306;SDS011;7237;49.500;11.400;2022-08-06T04:48:19;6.03;;;3.30;;
14306;SDS011;7237;49.500;11.400;2022-08-06T04:50:47;4.77;;;3.70;;
14306;SDS011;7237;49.500;11.400;2022-08-06T04:53:15;3.27;;;3.00;;
14306;SDS011;7237;49.500;11.400;2022-08-06T04:55:43;4.77;;;3.70;;
14306;SDS011;7237;49.500;11.400;2022-08-06T04:58:11;4.90;;;3.83;;
14306;SDS011;7237;49.500;11.400;2022-08-06T05:00:40;5.43;;;3.50;;
14306;SDS011;7237;49.500;11.400;2022-08-06T05:03:07;4.77;;;2.93;;
14306;SDS011;7237;49.500;11.400;2022-08-06T05:05:35;2.83;;;2.50;;
14306;SDS011;7237;49.500;11.400;2022-08-06T05:08:04;4.80;;;3.27;;
14306;SDS011;7237;49.500;11.400;2022-08-06T05:10:35;3.33;;;2.30;;
14306;SDS011;7237;49.500;11.400;2022-08-06T05:13:03;2.70;;;2.50;;
14306;SDS011;7237;49.500;11.400;2022-08-06T05:15:31;3.53;;;2.27;;
14306;SDS011;7237;49.500;11.400;2022-08-06T05:17:59;6.47;;;2.00;;
14306;SDS011;7237;49.500;11.400;2022-08-06T05:20:29;5.27;;;1.70;;
14306;SDS011;7237;49.500;11.400;2022-08-06T05:22:59;3.27;;;1.80;;
14306;SDS011;7237;49.500;11.400;2022-08-06T05:25:27;3.13;;;1.43;;
14306;SDS011;7237;49.500;11.400;2022-08-06T05:27:56;4.33;;;1.57;;
14306;SDS011;7237;49.500;11.400;2022-08-06T05:30:23;1.37;;;1.20;;
14306;SDS011;7237;49.500;11.400;2022-08-06T05:32:50;3.80;;;1.27;;
14306;SDS011;7237;49.500;11.400;2022-08-06T05:35:17;2.33;;;1.40;;
14306;SDS011;7237;49.500;11.400;2022-08-06T05:37:44;2.80;;;1.30;;
14306;SDS011;7237;49.500;11.400;2022-08-06T05:40:11;3.27;;;1.00;;
14306;SDS011;7237;49.500;11.400;2022-08-06T05:42:39;2.30;;;1.10;;
14306;SDS011;7237;49.500;11.400;2022-08-06T05:45:08;5.15;;;1.20;;
14306;SDS011;7237;49.500;11.400;2022-08-06T05:47:37;2.78;;;0.82;;
14306;SDS011;7237;49.500;11.400;2022-08-06T05:50:08;0.85;;;0.77;;
14306;SDS011;7237;49.500;11.400;2022-08-06T05:52:36;2.67;;;1.00;;
14306;SDS011;7237;49.500;11.400;2022-08-06T05:55:04;0.95;;;0.90;;
14306;SDS011;7237;49.500;11.400;2022-08-06T05:57:33;1.15;;;0.88;;
14306;SDS011;7237;49.500;11.400;2022-08-06T06:00:04;2.67;;;0.90;;
14306;SDS011;7237;49.500;11.400;2022-08-06T06:02:36;1.25;;;0.90;;
14306;SDS011;7237;49.500;11.400;2022-08-06T06:05:03;5.05;;;0.90;;
14306;SDS011;7237;49.500;11.400;2022-08-06T06:07:31;2.30;;;1.00;;
14306;SDS011;7237;49.500;11.400;2022-08-06T06:09:58;0.93;;;0.80;;
14306;SDS011;7237;49.500;11.400;2022-08-06T06:12:27;1.50;;;0.80;;
14306;SDS011;7237;49.500;11.400;2022-08-06T06:14:55;2.17;;;0.80;;
14306;SDS011;7237;49.500;11.400;2022-08-06T06:17:40;1.55;;;0.80;;
14306;SDS011;7237;49.500;11.400;2022-08-06T06:20:12;1.38;;;0.75;;
14306;SDS011;7237;49.500;11.400;2022-08-06T06:22:44;2.83;;;0.85;;
14306;SDS011;7237;49.500;11.400;2022-08-06T06:25:12;1.55;;;0.80;;
14306;SDS011;7237;49.500;11.400;2022-08-06T06:27:43;2.72;;;1.00;;
14306;SDS011;7237;49.500;11.400;2022-08-06T06:30:14;2.40;;;0.90;;
14306;SDS011;7237;49.500;11.400;2022-08-06T06:32:44;1.42;;;0.98;;
14306;SDS011;7237;49.500;11.400;2022-08-06T06:35:23;2.15;;;0.77;;
14306;SDS011;7237;49.500;11.400;2022-08-06T06:37:54;4.47;;;1.08;;
14306;SDS011;7237;49.500;11.400;2022-08-06T06:40:25;1.30;;;1.00;;
14306;SDS011;7237;49.500;11.400;2022-08-06T06:42:57;0.90;;;0.88;;
14306;SDS011;7237;49.500;11.400;2022-08-06T06:45:29;3.47;;;0.98;;
14306;SDS011;7237;49.500;11.400;2022-08-06T06:47:59;3.67;;;1.00;;
14306;SDS011;7237;49.500;11.400;2022-08-06T06:50:28;3.35;;;0.90;;
14306;SDS011;7237;49.500;11.400;2022-08-06T06:52:56;4.57;;;0.80;;
14306;SDS011;7237;49.500;11.400;2022-08-06T06:55:25;1.10;;;1.00;;
14306;SDS011;7237;49.500;11.400;2022-08-06T06:57:56;1.83;;;0.98;;
14306;SDS011;7237;49.500;11.400;2022-08-06T07:00:25;1.55;;;0.80;;
14306;SDS011;7237;49.500;11.400;2022-08-06T07:02:53;1.00;;;0.82;;
14306;SDS011;7237;49.500;11.400;2022-08-06T07:05:23;2.67;;;0.98;;
14306;SDS011;7237;49.500;11.400;2022-08-06T07:07:50;1.17;;;0.75;;
14306;SDS011;7237;49.500;11.400;2022-08-06T07:10:18;0.82;;;0.70;;
14306;SDS011;7237;49.500;11.400;2022-08-06T07:12:46;0.90;;;0.77;;
14306;SDS011;7237;49.500;11.400;2022-08-06T07:15:14;2.80;;;1.05;;
14306;SDS011;7237;49.500;11.400;2022-08-06T07:17:43;1.15;;;0.63;;
14306;SDS011;7237;49.500;11.400;2022-08-06T07:20:10;1.50;;;0.93;;
14306;SDS011;7237;49.500;11.400;2022-08-06T07:22:40;1.42;;;0.80;;
14306;SDS011;7237;49.500;11.400;2022-08-06T07:25:09;3.33;;;1.00;;
14306;SDS011;7237;49.500;11.400;2022-08-06T07:27:38;3.95;;;0.93;;
14306;SDS011;7237;49.500;11.400;2022-08-06T07:30:06;2.78;;;0.80;;
14306;SDS011;7237;49.500;11.400;2022-08-06T07:32:34;0.98;;;0.70;;
14306;SDS011;7237;49.500;11.400;2022-08-06T07:35:02;1.58;;;1.02;;
14306;SDS011;7237;49.500;11.400;2022-08-06T07:37:30;3.15;;;1.10;;
14306;SDS011;7237;49.500;11.400;2022-08-06T07:39:59;1.17;;;0.80;;
14306;SDS011;7237;49.500;11.400;2022-08-06T07:42:27;1.50;;;0.80;;
14306;SDS011;7237;49.500;11.400;2022-08-06T07:44:56;1.20;;;0.93;;
14306;SDS011;7237;49.500;11.400;2022-08-06T07:47:25;1.95;;;0.93;;
14306;SDS011;7237;49.500;11.400;2022-08-06T07:49:55;1.17;;;0.80;;
14306;SDS011;7237;49.500;11.400;2022-08-06T07:52:22;1.20;;;0.77;;
14306;SDS011;7237;49.500;11.400;2022-08-06T07:54:50;2.10;;;0.80;;
14306;SDS011;7237;49.500;11.400;2022-08-06T07:57:19;1.92;;;0.90;;
14306;SDS011;7237;49.500;11.400;2022-08-06T07:59:47;1.65;;;0.70;;
14306;SDS011;7237;49.500;11.400;2022-08-06T08:02:14;0.95;;;0.60;;
14306;SDS011;7237;49.500;11.400;2022-08-06T08:04:42;1.02;;;0.80;;
14306;SDS011;7237;49.500;11.400;2022-08-06T08:07:27;3.03;;;0.80;;
14306;SDS011;7237;49.500;11.400;2022-08-06T08:09:56;2.25;;;0.82;;
14306;SDS011;7237;49.500;11.400;2022-08-06T08:12:25;2.28;;;1.30;;
14306;SDS011;7237;49.500;11.400;2022-08-06T08:14:53;0.82;;;0.82;;
14306;SDS011;7237;49.500;11.400;2022-08-06T08:17:20;2.17;;;0.98;;
14306;SDS011;7237;49.500;11.400;2022-08-06T08:19:48;1.20;;;0.80;;
14306;SDS011;7237;49.500;11.400;2022-08-06T08:22:15;1.85;;;0.90;;
14306;SDS011;7237;49.500;11.400;2022-08-06T08:24:43;0.98;;;0.90;;
14306;SDS011;7237;49.500;11.400;2022-08-06T08:27:11;0.75;;;0.75;;
14306;SDS011;7237;49.500;11.400;2022-08-06T08:29:41;1.02;;;0.80;;
14306;SDS011;7237;49.500;11.400;2022-08-06T08:32:08;3.70;;;0.70;;
14306;SDS011;7237;49.500;11.400;2022-08-06T08:34:35;1.40;;;0.77;;
14306;SDS011;7237;49.500;11.400;2022-08-06T08:37:03;1.90;;;0.60;;
14306;SDS011;7237;49.500;11.400;2022-08-06T08:39:30;1.13;;;0.80;;
14306;SDS011;7237;49.500;11.400;2022-08-06T08:41:59;1.50;;;0.70;;
14306;SDS011;7237;49.500;11.400;2022-08-06T08:44:27;3.08;;;0.80;;
14306;SDS011;7237;49.500;11.400;2022-08-06T08:46:57;3.20;;;1.00;;
14306;SDS011;7237;49.500;11.400;2022-08-06T08:49:25;0.63;;;0.63;;
14306;SDS011;7237;49.500;11.400;2022-08-06T08:51:54;1.67;;;0.70;;
14306;SDS011;7237;49.500;11.400;2022-08-06T08:54:22;1.38;;;0.85;;
14306;SDS011;7237;49.500;11.400;2022-08-06T08:56:51;1.55;;;1.05;;
14306;SDS011;7237;49.500;11.400;2022-08-06T08:59:18;1.42;;;0.85;;
14306;SDS011;7237;49.500;11.400;2022-08-06T09:01:45;0.80;;;0.60;;
14306;SDS011;7237;49.500;11.400;2022-08-06T09:04:14;1.00;;;0.90;;
14306;SDS011;7237;49.500;11.400;2022-08-06T09:06:41;1.20;;;0.68;;
14306;SDS011;7237;49.500;11.400;2022-08-06T09:09:08;1.30;;;0.77;;
14306;SDS011;7237;49.500;11.400;2022-08-06T09:11:36;1.83;;;1.02;;
14306;SDS011;7237;49.500;11.400;2022-08-06T09:14:03;1.45;;;0.98;;
14306;SDS011;7237;49.500;11.400;2022-08-06T09:16:31;2.13;;;0.82;;
14306;SDS011;7237;49.500;11.400;2022-08-06T09:18:58;1.35;;;0.80;;
14306;SDS011;7237;49.500;11.400;2022-08-06T09:21:27;1.40;;;0.80;;
14306;SDS011;7237;49.500;11.400;2022-08-06T09:23:54;2.13;;;0.70;;
14306;SDS011;7237;49.500;11.400;2022-08-06T09:26:21;2.22;;;0.60;;
14306;SDS011;7237;49.500;11.400;2022-08-06T09:28:48;1.65;;;0.77;;
14306;SDS011;7237;49.500;11.400;2022-08-06T09:31:16;1.58;;;0.70;;
14306;SDS011;7237;49.500;11.400;2022-08-06T09:33:55;3.58;;;1.23;;
14306;SDS011;7237;49.500;11.400;2022-08-06T09:36:23;1.75;;;0.70;;
14306;SDS011;7237;49.500;11.400;2022-08-06T09:38:52;1.27;;;0.80;;
14306;SDS011;7237;49.500;11.400;2022-08-06T09:41:20;1.52;;;1.00;;
14306;SDS011;7237;49.500;11.400;2022-08-06T09:43:50;0.60;;;0.60;;
14306;SDS011;7237;49.500;11.400;2022-08-06T09:46:17;1.60;;;0.88;;
14306;SDS011;7237;49.500;11.400;2022-08-06T09:48:57;1.00;;;0.73;;
14306;SDS011;7237;49.500;11.400;2022-08-06T09:51:24;1.23;;;0.70;;
14306;SDS011;7237;49.500;11.400;2022-08-06T09:53:54;2.22;;;1.15;;
14306;SDS011;7237;49.500;11.400;2022-08-06T09:56:21;1.63;;;0.65;;
14306;SDS011;7237;49.500;11.400;2022-08-06T09:58:49;3.60;;;0.70;;
14306;SDS011;7237;49.500;11.400;2022-08-06T10:01:16;1.38;;;0.80;;
14306;SDS011;7237;49.500;11.400;2022-08-06T10:03:44;1.40;;;0.73;;
14306;SDS011;7237;49.500;11.400;2022-08-06T10:06:11;1.00;;;0.70;;
14306;SDS011;7237;49.500;11.400;2022-08-06T10:08:38;2.28;;;1.00;;
14306;SDS011;7237;49.500;11.400;2022-08-06T10:11:07;3.17;;;1.05;;
14306;SDS011;7237;49.500;11.400;2022-08-06T10:13:35;0.88;;;0.70;;
14306;SDS011;7237;49.500;11.400;2022-08-06T10:16:13;1.92;;;1.02;;
14306;SDS011;7237;49.500;11.400;2022-08-06T10:18:41;1.48;;;1.00;;
14306;SDS011;7237;49.500;11.400;2022-08-06T10:21:09;1.42;;;0.80;;
14306;SDS011;7237;49.500;11.400;2022-08-06T10:23:38;2.55;;;0.95;;
14306;SDS011;7237;49.500;11.400;2022-08-06T10:26:07;0.75;;;0.70;;
14306;SDS011;7237;49.500;11.400;2022-08-06T10:28:36;1.42;;;1.00;;
14306;SDS011;7237;49.500;11.400;2022-08-06T10:31:04;2.65;;;0.88;;
14306;SDS011;7237;49.500;11.400;2022-08-06T10:33:31;2.30;;;1.00;;
14306;SDS011;7237;49.500;11.400;2022-08-06T10:36:00;0.50;;;0.50;;
14306;SDS011;7237;49.500;11.400;2022-08-06T10:38:30;1.02;;;0.70;;
14306;SDS011;7237;49.500;11.400;2022-08-06T10:41:00;2.75;;;1.23;;
14306;SDS011;7237;49.500;11.400;2022-08-06T10:43:31;2.30;;;0.80;;
14306;SDS011;7237;49.500;11.400;2022-08-06T10:45:58;0.82;;;0.82;;
14306;SDS011;7237;49.500;11.400;2022-08-06T10:48:26;0.88;;;0.60;;
14306;SDS011;7237;49.500;11.400;2022-08-06T10:50:53;1.08;;;0.68;;
14306;SDS011;7237;49.500;11.400;2022-08-06T10:53:20;1.77;;;1.00;;
14306;SDS011;7237;49.500;11.400;2022-08-06T10:55:48;1.75;;;1.05;;
14306;SDS011;7237;49.500;11.400;2022-08-06T10:58:15;4.43;;;0.98;;
14306;SDS011;7237;49.500;11.400;2022-08-06T11:00:44;3.17;;;1.00;;
14306;SDS011;7237;49.500;11.400;2022-08-06T11:03:14;1.60;;;0.80;;
14306;SDS011;7237;49.500;11.400;2022-08-06T11:05:42;3.05;;;0.75;;
14306;SDS011;7237;49.500;11.400;2022-08-06T11:11:07;1.00;;;0.70;;
14306;SDS011;7237;49.500;11.400;2022-08-06T11:13:40;2.47;;;0.70;;
14306;SDS011;7237;49.500;11.400;2022-08-06T11:16:22;2.42;;;0.50;;
14306;SDS011;7237;49.500;11.400;2022-08-06T11:18:59;2.00;;;0.80;;
14306;SDS011;7237;49.500;11.400;2022-08-06T11:21:40;1.17;;;0.82;;
14306;SDS011;7237;49.500;11.400;2022-08-06T11:24:07;2.38;;;0.70;;
14306;SDS011;7237;49.500;11.400;2022-08-06T11:26:35;2.50;;;0.50;;
14306;SDS011;7237;49.500;11.400;2022-08-06T11:29:03;1.33;;;0.60;;
14306;SDS011;7237;49.500;11.400;2022-08-06T11:31:36;1.08;;;0.80;;
14306;SDS011;7237;49.500;11.400;2022-08-06T11:34:04;2.75;;;0.70;;
14306;SDS011;7237;49.500;11.400;2022-08-06T11:39:18;1.95;;;0.90;;
14306;SDS011;7237;49.500;11.400;2022-08-06T11:41:47;1.23;;;0.75;;
14306;SDS011;7237;49.500;11.400;2022-08-06T11:44:14;0.90;;;0.60;;
14306;SDS011;7237;49.500;11.400;2022-08-06T11:46:43;0.55;;;0.50;;
14306;SDS011;7237;49.500;11.400;2022-08-06T11:49:12;1.70;;;1.08;;
14306;SDS011;7237;49.500;11.400;2022-08-06T11:51:40;1.00;;;0.70;;
14306;SDS011;7237;49.500;11.400;2022-08-06T11:54:07;0.98;;;0.50;;
14306;SDS011;7237;49.500;11.400;2022-08-06T11:56:35;0.85;;;0.50;;
14306;SDS011;7237;49.500;11.400;2022-08-06T11:59:12;0.68;;;0.52;;
14306;SDS011;7237;49.500;11.400;2022-08-06T12:01:47;0.68;;;0.60;;
14306;SDS011;7237;49.500;11.400;2022-08-06T12:07:15;0.80;;;0.80;;
14306;SDS011;7237;49.500;11.400;2022-08-06T12:09:43;1.70;;;0.70;;
14306;SDS011;7237;49.500;11.400;2022-08-06T12:14:57;1.05;;;0.70;;
14306;SDS011;7237;49.500;11.400;2022-08-06T12:17:26;1.02;;;0.70;;
14306;SDS011;7237;49.500;11.400;2022-08-06T12:19:54;1.05;;;0.70;;
14306;SDS011;7237;49.500;11.400;2022-08-06T12:22:22;2.30;;;0.63;;
14306;SDS011;7237;49.500;11.400;2022-08-06T12:24:50;0.52;;;0.52;;
14306;SDS011;7237;49.500;11.400;2022-08-06T12:27:19;1.95;;;0.80;;
14306;SDS011;7237;49.500;11.400;2022-08-06T12:29:46;0.68;;;0.52;;
14306;SDS011;7237;49.500;11.400;2022-08-06T12:32:20;1.85;;;0.70;;
14306;SDS011;7237;49.500;11.400;2022-08-06T12:34:48;1.08;;;0.63;;
14306;SDS011;7237;49.500;11.400;2022-08-06T12:37:16;1.35;;;0.50;;
14306;SDS011;7237;49.500;11.400;2022-08-06T12:39:44;2.03;;;0.70;;
14306;SDS011;7237;49.500;11.400;2022-08-06T12:42:29;0.47;;;0.43;;
14306;SDS011;7237;49.500;11.400;2022-08-06T12:44:56;1.30;;;0.65;;
14306;SDS011;7237;49.500;11.400;2022-08-06T12:47:23;0.70;;;0.70;;
14306;SDS011;7237;49.500;11.400;2022-08-06T12:49:53;3.25;;;0.60;;
14306;SDS011;7237;49.500;11.400;2022-08-06T12:52:20;0.63;;;0.50;;
14306;SDS011;7237;49.500;11.400;2022-08-06T12:54:48;5.97;;;0.90;;
14306;SDS011;7237;49.500;11.400;2022-08-06T12:57:19;1.05;;;0.40;;
14306;SDS011;7237;49.500;11.400;2022-08-06T12:59:46;0.60;;;0.60;;
14306;SDS011;7237;49.500;11.400;2022-08-06T13:02:13;1.48;;;0.60;;
14306;SDS011;7237;49.500;11.400;2022-08-06T13:04:43;0.63;;;0.60;;
14306;SDS011;7237;49.500;11.400;2022-08-06T13:07:12;3.55;;;0.65;;
14306;SDS011;7237;49.500;11.400;2022-08-06T13:09:39;1.80;;;0.50;;
14306;SDS011;7237;49.500;11.400;2022-08-06T13:12:10;0.65;;;0.60;;
14306;SDS011;7237;49.500;11.400;2022-08-06T13:14:47;0.50;;;0.50;;
14306;SDS011;7237;49.500;11.400;2022-08-06T13:17:14;3.08;;;0.55;;
14306;SDS011;7237;49.500;11.400;2022-08-06T13:19:50;1.55;;;0.70;;
14306;SDS011;7237;49.500;11.400;2022-08-06T13:22:19;3.08;;;0.90;;
14306;SDS011;7237;49.500;11.400;2022-08-06T13:24:46;0.75;;;0.70;;
14306;SDS011;7237;49.500;11.400;2022-08-06T13:27:13;1.17;;;0.60;;
14306;SDS011;7237;49.500;11.400;2022-08-06T13:32:23;1.40;;;0.88;;
14306;SDS011;7237;49.500;11.400;2022-08-06T13:34:51;1.00;;;0.60;;
14306;SDS011;7237;49.500;11.400;2022-08-06T13:42:31;1.88;;;0.60;;
14306;SDS011;7237;49.500;11.400;2022-08-06T13:44:58;0.82;;;0.52;;
14306;SDS011;7237;49.500;11.400;2022-08-06T13:47:26;2.92;;;1.05;;
14306;SDS011;7237;49.500;11.400;2022-08-06T13:49:53;1.17;;;0.50;;
14306;SDS011;7237;49.500;11.400;2022-08-06T13:52:20;1.20;;;0.63;;
14306;SDS011;7237;49.500;11.400;2022-08-06T13:54:47;0.98;;;0.55;;
14306;SDS011;7237;49.500;11.400;2022-08-06T13:57:14;2.70;;;0.70;;
14306;SDS011;7237;49.500;11.400;2022-08-06T13:59:43;1.52;;;0.80;;
14306;SDS011;7237;49.500;11.400;2022-08-06T14:02:10;0.73;;;0.65;;
14306;SDS011;7237;49.500;11.400;2022-08-06T14:04:37;0.80;;;0.65;;
14306;SDS011;7237;49.500;11.400;2022-08-06T14:07:04;0.50;;;0.50;;
14306;SDS011;7237;49.500;11.400;2022-08-06T14:09:31;0.60;;;0.60;;
14306;SDS011;7237;49.500;11.400;2022-08-06T14:11:59;1.17;;;0.65;;
14306;SDS011;7237;49.500;11.400;2022-08-06T14:14:28;0.68;;;0.68;;
14306;SDS011;7237;49.500;11.400;2022-08-06T14:16:57;0.98;;;0.57;;
14306;SDS011;7237;49.500;11.400;2022-08-06T14:19:25;2.97;;;0.80;;
14306;SDS011;7237;49.500;11.400;2022-08-06T14:21:52;3.55;;;0.80;;
14306;SDS011;7237;49.500;11.400;2022-08-06T14:24:19;1.30;;;0.70;;
14306;SDS011;7237;49.500;11.400;2022-08-06T14:26:46;1.02;;;0.50;;
14306;SDS011;7237;49.500;11.400;2022-08-06T14:29:13;1.38;;;0.70;;
14306;SDS011;7237;49.500;11.400;2022-08-06T14:31:40;0.98;;;0.75;;
14306;SDS011;7237;49.500;11.400;2022-08-06T14:34:08;1.08;;;0.63;;
14306;SDS011;7237;49.500;11.400;2022-08-06T14:36:35;0.90;;;0.63;;
14306;SDS011;7237;49.500;11.400;2022-08-06T14:39:03;2.22;;;0.52;;
14306;SDS011;7237;49.500;11.400;2022-08-06T14:41:30;2.20;;;0.77;;
14306;SDS011;7237;49.500;11.400;2022-08-06T14:44:15;1.30;;;0.75;;
14306;SDS011;7237;49.500;11.400;2022-08-06T14:47:00;2.67;;;1.00;;
14306;SDS011;7237;49.500;11.400;2022-08-06T14:49:28;2.65;;;0.90;;
14306;SDS011;7237;49.500;11.400;2022-08-06T14:51:55;0.75;;;0.60;;
14306;SDS011;7237;49.500;11.400;2022-08-06T14:54:22;0.98;;;0.70;;
14306;SDS011;7237;49.500;11.400;2022-08-06T14:56:49;2.15;;;0.70;;
14306;SDS011;7237;49.500;11.400;2022-08-06T14:59:16;0.85;;;0.70;;
14306;SDS011;7237;49.500;11.400;2022-08-06T15:01:43;0.70;;;0.70;;
14306;SDS011;7237;49.500;11.400;2022-08-06T15:04:11;1.92;;;0.77;;
14306;SDS011;7237;49.500;11.400;2022-08-06T15:06:39;1.65;;;0.50;;
14306;SDS011;7237;49.500;11.400;2022-08-06T15:09:06;0.75;;;0.60;;
14306;SDS011;7237;49.500;11.400;2022-08-06T15:11:33;2.45;;;0.55;;
14306;SDS011;7237;49.500;11.400;2022-08-06T15:14:00;0.80;;;0.80;;
14306;SDS011;7237;49.500;11.400;2022-08-06T15:16:27;0.60;;;0.60;;